createdAt,value
2018-02-08T00:02:19.739Z,-1.50
2018-02-08T00:05:04.881Z,-1.50
2018-02-08T00:07:35.499Z,-1.50
2018-02-08T00:10:06.586Z,-1.50
2018-02-08T00:12:43.395Z,-1.50
2018-02-08T00:15:15.098Z,-1.50
2018-02-08T00:20:47.343Z,-1.60
2018-02-08T00:23:19.378Z,-1.50
2018-02-08T00:25:48.430Z,-1.50
2018-02-08T00:28:17.402Z,-1.40
2018-02-08T00:30:46.095Z,-1.30
2018-02-08T00:33:22.019Z,-1.30
2018-02-08T00:35:57.026Z,-1.30
2018-02-08T00:38:28.106Z,-1.20
2018-02-08T00:40:57.022Z,-1.20
2018-02-08T00:43:25.094Z,-1.20
2018-02-08T00:45:58.074Z,-1.20
2018-02-08T00:48:30.866Z,-1.10
2018-02-08T00:50:59.930Z,-1.10
2018-02-08T00:53:42.671Z,-1.10
2018-02-08T00:56:12.846Z,-1.10
2018-02-08T00:58:45.262Z,-1.10
2018-02-08T01:01:16.474Z,-1.10
2018-02-08T01:03:48.390Z,-1.10
2018-02-08T01:06:16.490Z,-1.10
2018-02-08T01:08:47.682Z,-1.10
2018-02-08T01:11:16.706Z,-1.20
2018-02-08T01:13:44.798Z,-1.20
2018-02-08T01:16:13.910Z,-1.20
2018-02-08T01:18:43.994Z,-1.20
2018-02-08T01:21:15.398Z,-1.20
2018-02-08T01:23:46.290Z,-1.20
2018-02-08T01:26:15.346Z,-1.20
2018-02-08T01:28:46.394Z,-1.20
2018-02-08T01:31:14.466Z,-1.20
2018-02-08T01:33:45.882Z,-1.20
2018-02-08T01:36:24.553Z,-1.20
2018-02-08T01:38:53.334Z,-1.10
2018-02-08T01:41:23.634Z,-1.10
2018-02-08T01:43:52.682Z,-1.00
2018-02-08T01:46:20.730Z,-1.00
2018-02-08T01:48:50.634Z,-1.00
2018-02-08T01:51:19.490Z,-1.00
2018-02-08T01:53:55.274Z,-1.00
2018-02-08T01:56:26.066Z,-1.00
2018-02-08T01:59:04.714Z,-1.10
2018-02-08T02:01:34.733Z,-1.10
2018-02-08T02:04:05.910Z,-1.10
2018-02-08T02:06:34.945Z,-1.10
2018-02-08T02:09:03.034Z,-1.10
2018-02-08T02:11:35.406Z,-1.20
2018-02-08T02:14:05.398Z,-1.20
2018-02-08T02:16:39.346Z,-1.20
2018-02-08T02:19:08.318Z,-1.30
2018-02-08T02:21:38.394Z,-1.30
2018-02-08T02:24:06.470Z,-1.30
2018-02-08T02:26:37.209Z,-1.30
2018-02-08T02:29:06.038Z,-1.40
2018-02-08T02:31:34.131Z,-1.40
2018-02-08T02:34:09.018Z,-1.40
2018-02-08T02:36:41.215Z,-1.40
2018-02-08T02:39:10.326Z,-1.40
2018-02-08T02:41:39.386Z,-1.40
2018-02-08T02:44:09.718Z,-1.40
2018-02-08T02:46:42.062Z,-1.50
2018-02-08T02:49:10.094Z,-1.40
2018-02-08T02:51:38.134Z,-1.50
2018-02-08T02:54:11.582Z,-1.50
2018-02-08T02:56:46.186Z,-1.50
2018-02-08T02:59:24.878Z,-1.50
2018-02-08T03:01:52.925Z,-1.50
2018-02-08T03:04:20.958Z,-1.40
2018-02-08T03:06:50.886Z,-1.50
2018-02-08T03:09:27.094Z,-1.50
2018-02-08T03:11:59.293Z,-1.50
2018-02-08T03:14:27.338Z,-1.50
2018-02-08T03:16:55.384Z,-1.50
2018-02-08T03:19:23.414Z,-1.50
2018-02-08T03:21:53.201Z,-1.40
2018-02-08T03:24:21.246Z,-1.40
2018-02-08T03:26:49.290Z,-1.50
2018-02-08T03:29:17.330Z,-1.40
2018-02-08T03:31:46.314Z,-1.40
2018-02-08T03:34:14.346Z,-1.50
2018-02-08T03:36:45.122Z,-1.50
2018-02-08T03:39:13.153Z,-1.50
2018-02-08T03:41:46.213Z,-1.50
2018-02-08T03:44:15.220Z,-1.50
2018-02-08T03:46:46.621Z,-1.50
2018-02-08T03:49:15.637Z,-1.50
2018-02-08T03:51:43.689Z,-1.50
2018-02-08T03:54:11.729Z,-1.50
2018-02-08T03:56:40.749Z,-1.50
2018-02-08T03:59:10.797Z,-1.50
2018-02-08T04:01:44.063Z,-1.50
2018-02-08T04:04:14.081Z,-1.50
2018-02-08T04:06:43.073Z,-1.40
2018-02-08T04:09:11.113Z,-1.50
2018-02-08T04:11:42.789Z,-1.50
2018-02-08T04:14:14.546Z,-1.50
2018-02-08T04:16:46.313Z,-1.50
2018-02-08T04:19:21.821Z,-1.50
2018-02-08T04:21:50.842Z,-1.50
2018-02-08T04:24:19.845Z,-1.50
2018-02-08T04:26:50.593Z,-1.50
2018-02-08T04:29:25.469Z,-1.50
2018-02-08T04:31:56.533Z,-1.50
2018-02-08T04:34:24.573Z,-1.50
2018-02-08T04:36:53.593Z,-1.50
2018-02-08T04:42:44.261Z,-1.50
2018-02-08T04:45:24.145Z,-1.50
2018-02-08T04:48:00.833Z,-1.60
2018-02-08T04:50:32.501Z,-1.60
2018-02-08T04:53:00.565Z,-1.70
2018-02-08T04:55:37.693Z,-1.70
2018-02-08T04:58:06.487Z,-1.70
2018-02-08T05:00:43.085Z,-1.70
2018-02-08T05:03:12.109Z,-1.70
2018-02-08T05:05:40.137Z,-1.70
2018-02-08T05:08:08.168Z,-1.70
2018-02-08T05:10:37.011Z,-1.70
2018-02-08T05:13:08.615Z,-1.80
2018-02-08T05:15:40.547Z,-1.70
2018-02-08T05:18:08.581Z,-1.70
2018-02-08T05:20:36.633Z,-1.70
2018-02-08T05:23:11.593Z,-1.70
2018-02-08T05:25:42.881Z,-1.60
2018-02-08T05:28:24.281Z,-1.70
2018-02-08T05:30:52.881Z,-1.70
2018-02-08T05:33:22.857Z,-1.70
2018-02-08T05:36:13.209Z,-1.70
2018-02-08T05:38:43.253Z,-1.70
2018-02-08T05:41:19.701Z,-1.70
2018-02-08T05:43:48.745Z,-1.70
2018-02-08T05:46:17.573Z,-1.70
2018-02-08T05:48:46.101Z,-1.70
2018-02-08T05:51:24.997Z,-1.70
2018-02-08T05:53:55.033Z,-1.70
2018-02-08T05:56:30.765Z,-1.80
2018-02-08T05:59:00.805Z,-1.80
2018-02-08T06:01:29.620Z,-1.70
2018-02-08T06:03:58.577Z,-1.70
2018-02-08T06:06:26.616Z,-1.70
2018-02-08T06:08:55.665Z,-1.70
2018-02-08T06:11:29.657Z,-1.70
2018-02-08T06:14:00.700Z,-1.70
2018-02-08T06:16:29.513Z,-1.80
2018-02-08T06:19:02.737Z,-1.80
2018-02-08T06:21:35.348Z,-1.70
2018-02-08T06:24:03.404Z,-1.70
2018-02-08T06:26:42.245Z,-1.70
2018-02-08T06:29:14.130Z,-1.70
2018-02-08T06:31:42.924Z,-1.70
2018-02-08T06:34:14.761Z,-1.70
2018-02-08T06:36:45.548Z,-1.60
2018-02-08T06:39:19.284Z,-1.60
2018-02-08T06:41:52.068Z,-1.60
2018-02-08T06:44:20.889Z,-1.60
2018-02-08T06:46:57.504Z,-1.60
2018-02-08T06:49:26.544Z,-1.60
2018-02-08T06:51:54.656Z,-1.60
2018-02-08T06:54:23.688Z,-1.60
2018-02-08T06:57:00.464Z,-1.50
2018-02-08T06:59:30.256Z,-1.50
2018-02-08T07:02:01.324Z,-1.60
2018-02-08T07:04:40.816Z,-1.50
2018-02-08T07:07:08.882Z,-1.50
2018-02-08T07:09:53.512Z,-1.40
2018-02-08T07:12:26.144Z,-1.40
2018-02-08T07:15:06.536Z,-1.40
2018-02-08T07:17:45.632Z,-1.30
2018-02-08T07:20:13.668Z,-1.30
2018-02-08T07:22:41.712Z,-1.30
2018-02-08T07:25:17.908Z,-1.30
2018-02-08T07:27:45.956Z,-1.30
2018-02-08T07:30:14.910Z,-1.30
2018-02-08T07:32:45.932Z,-1.40
2018-02-08T07:35:19.652Z,-1.30
2018-02-08T07:37:48.640Z,-1.20
2018-02-08T07:40:16.672Z,-1.30
2018-02-08T07:42:44.696Z,-1.30
2018-02-08T07:45:14.384Z,-1.30
2018-02-08T07:48:02.472Z,-1.30
2018-02-08T07:50:35.496Z,-1.30
2018-02-08T07:53:09.976Z,-1.20
2018-02-08T07:55:44.081Z,-1.30
2018-02-08T07:58:12.128Z,-1.20
2018-02-08T08:00:44.288Z,-1.20
2018-02-08T08:03:18.232Z,-1.10
2018-02-08T08:05:46.264Z,-1.10
2018-02-08T08:08:14.284Z,-1.00
2018-02-08T08:10:47.968Z,-1.00
2018-02-08T08:13:19.772Z,-1.00
2018-02-08T08:15:55.460Z,-0.80
2018-02-08T08:18:27.792Z,-0.70
2018-02-08T08:21:00.668Z,-0.70
2018-02-08T08:23:44.964Z,-0.70
2018-02-08T08:26:18.453Z,-0.70
2018-02-08T08:29:08.532Z,-0.60
2018-02-08T08:31:44.196Z,-0.40
2018-02-08T08:34:12.988Z,-0.30
2018-02-08T08:36:44.440Z,-0.30
2018-02-08T08:39:13.388Z,-0.40
2018-02-08T08:41:46.160Z,-0.30
2018-02-08T08:44:15.084Z,-0.20
2018-02-08T08:46:43.104Z,-0.10
2018-02-08T08:49:21.211Z,-0.10
2018-02-08T08:51:54.468Z,0.00
2018-02-08T08:54:22.469Z,-0.10
2018-02-08T08:56:50.496Z,-0.10
2018-02-08T08:59:20.204Z,-0.10
2018-02-08T09:01:49.896Z,-0.10
2018-02-08T09:04:18.823Z,-0.10
2018-02-08T09:06:50.621Z,-0.10
2018-02-08T09:09:18.640Z,-0.10
2018-02-08T09:11:53.413Z,0.00
2018-02-08T09:14:23.394Z,0.00
2018-02-08T09:16:59.984Z,0.10
2018-02-08T09:19:34.811Z,0.10
2018-02-08T09:22:04.735Z,0.30
2018-02-08T09:24:38.052Z,0.40
2018-02-08T09:27:09.947Z,0.40
2018-02-08T09:29:39.627Z,0.50
2018-02-08T09:32:08.543Z,0.50
2018-02-08T09:34:44.535Z,0.20
2018-02-08T09:37:14.451Z,0.20
2018-02-08T09:39:44.399Z,0.30
2018-02-08T09:42:12.423Z,0.30
2018-02-08T09:44:40.467Z,0.30
2018-02-08T09:47:13.736Z,0.10
2018-02-08T09:49:43.675Z,0.10
2018-02-08T09:52:16.815Z,0.20
2018-02-08T09:54:52.730Z,0.10
2018-02-08T09:57:28.560Z,0.20
2018-02-08T09:59:59.899Z,0.20
2018-02-08T10:02:29.907Z,0.20
2018-02-08T10:05:01.527Z,0.30
2018-02-08T10:07:33.327Z,0.40
2018-02-08T10:10:11.815Z,0.30
2018-02-08T10:12:43.967Z,0.40
2018-02-08T10:15:13.891Z,0.50
2018-02-08T10:17:43.825Z,0.70
2018-02-08T10:20:15.999Z,0.70
2018-02-08T10:22:44.011Z,0.80
2018-02-08T10:25:12.947Z,0.80
2018-02-08T10:27:44.223Z,0.80
2018-02-08T10:30:37.311Z,0.90
2018-02-08T10:33:05.334Z,0.90
2018-02-08T10:35:34.255Z,1.10
2018-02-08T10:38:04.175Z,1.20
2018-02-08T10:40:38.035Z,1.30
2018-02-08T10:43:07.980Z,1.30
2018-02-08T10:45:39.914Z,1.30
2018-02-08T10:48:20.407Z,1.20
2018-02-08T10:50:49.195Z,1.10
2018-02-08T10:53:21.753Z,1.30
2018-02-08T10:55:49.771Z,1.30
2018-02-08T10:58:21.547Z,1.20
2018-02-08T11:00:49.555Z,1.20
2018-02-08T11:03:18.339Z,1.20
2018-02-08T11:05:48.347Z,1.20
2018-02-08T11:08:16.370Z,1.20
2018-02-08T11:10:44.394Z,1.10
2018-02-08T11:13:13.183Z,1.00
2018-02-08T11:15:41.979Z,1.20
2018-02-08T11:18:16.333Z,1.30
2018-02-08T11:20:44.363Z,1.30
2018-02-08T11:23:15.068Z,1.40
2018-02-08T11:25:44.074Z,1.30
2018-02-08T11:28:16.423Z,1.30
2018-02-08T11:30:44.459Z,1.40
2018-02-08T11:33:12.495Z,1.50
2018-02-08T11:35:40.514Z,1.30
2018-02-08T11:38:08.550Z,1.50
2018-02-08T11:40:48.206Z,1.60
2018-02-08T11:43:19.534Z,1.60
2018-02-08T11:45:48.334Z,1.60
2018-02-08T11:48:16.494Z,1.60
2018-02-08T11:50:45.282Z,1.80
2018-02-08T11:53:19.059Z,1.90
2018-02-08T11:55:47.979Z,1.90
2018-02-08T11:58:20.027Z,1.80
2018-02-08T12:00:48.055Z,1.80
2018-02-08T12:03:16.095Z,2.00
2018-02-08T12:05:44.999Z,1.80
2018-02-08T12:08:13.019Z,1.70
2018-02-08T12:10:44.662Z,1.60
2018-02-08T12:13:12.690Z,1.90
2018-02-08T12:15:40.719Z,2.00
2018-02-08T12:18:13.979Z,2.30
2018-02-08T12:20:45.754Z,2.40
2018-02-08T12:23:14.746Z,2.10
2018-02-08T12:25:43.758Z,2.20
2018-02-08T12:28:17.630Z,2.20
2018-02-08T12:30:45.678Z,1.90
2018-02-08T12:33:19.374Z,1.80
2018-02-08T12:35:59.031Z,1.70
2018-02-08T12:38:28.058Z,1.70
2018-02-08T12:40:59.207Z,1.80
2018-02-08T12:43:28.130Z,1.80
2018-02-08T12:46:00.838Z,2.10
2018-02-08T12:48:28.886Z,2.00
2018-02-08T12:50:58.891Z,2.00
2018-02-08T12:53:27.690Z,2.00
2018-02-08T12:55:57.662Z,2.00
2018-02-08T12:58:26.666Z,1.80
2018-02-08T13:00:57.391Z,1.70
2018-02-08T13:03:25.440Z,1.70
2018-02-08T13:05:53.496Z,1.80
2018-02-08T13:08:21.506Z,1.90
2018-02-08T13:10:50.490Z,2.10
2018-02-08T13:13:18.514Z,2.10
2018-02-08T13:15:46.566Z,2.00
2018-02-08T13:18:14.602Z,1.90
2018-02-08T13:20:44.518Z,2.10
2018-02-08T13:23:14.534Z,2.10
2018-02-08T13:25:43.522Z,2.00
2018-02-08T13:28:11.577Z,2.10
2018-02-08T13:30:40.578Z,1.80
2018-02-08T13:33:10.626Z,1.80
2018-02-08T13:35:40.606Z,1.50
2018-02-08T13:38:08.642Z,1.80
2018-02-08T13:40:36.686Z,2.00
2018-02-08T13:43:16.692Z,2.00
2018-02-08T13:45:44.724Z,2.00
2018-02-08T13:48:22.570Z,2.00
2018-02-08T13:50:56.158Z,2.00
2018-02-08T13:56:22.058Z,2.40
2018-02-08T13:58:58.771Z,2.40
2018-02-08T14:01:32.535Z,2.20
2018-02-08T14:04:01.463Z,2.10
2018-02-08T14:06:29.490Z,1.80
2018-02-08T14:08:57.514Z,1.80
2018-02-08T14:11:25.553Z,2.10
2018-02-08T14:13:55.502Z,2.30
2018-02-08T14:16:29.030Z,2.30
2018-02-08T14:18:57.066Z,2.30
2018-02-08T14:21:25.118Z,2.40
2018-02-08T14:23:53.149Z,2.20
2018-02-08T14:26:22.070Z,2.10
2018-02-08T14:28:54.982Z,2.10
2018-02-08T14:31:23.014Z,1.90
2018-02-08T14:33:51.042Z,1.80
2018-02-08T14:36:21.754Z,1.90
2018-02-08T14:38:50.690Z,1.90
2018-02-08T14:41:22.298Z,1.80
2018-02-08T14:43:52.322Z,1.60
2018-02-08T14:46:20.358Z,1.50
2018-02-08T14:48:51.442Z,1.30
2018-02-08T14:51:20.242Z,1.00
2018-02-08T14:53:49.165Z,1.00
2018-02-08T14:56:17.194Z,1.00
2018-02-08T14:58:45.974Z,0.70
2018-02-08T15:01:15.786Z,0.70
2018-02-08T15:03:43.850Z,0.70
2018-02-08T15:06:11.870Z,0.70
2018-02-08T15:08:43.266Z,0.70
2018-02-08T15:11:11.290Z,0.70
2018-02-08T15:13:39.306Z,0.70
2018-02-08T15:16:07.330Z,0.70
2018-02-08T15:18:35.345Z,0.70
2018-02-08T15:21:03.365Z,0.70
2018-02-08T15:23:32.084Z,0.60
2018-02-08T15:26:00.110Z,0.60
2018-02-08T15:28:28.141Z,0.60
2018-02-08T15:30:56.166Z,0.50
2018-02-08T15:33:24.182Z,0.50
2018-02-08T15:35:54.018Z,0.50
2018-02-08T15:38:22.786Z,0.40
2018-02-08T15:40:51.583Z,0.40
2018-02-08T15:43:22.257Z,0.40
2018-02-08T15:45:53.144Z,0.30
2018-02-08T15:48:23.977Z,0.30
2018-02-08T15:50:56.085Z,0.30
2018-02-08T15:53:24.114Z,0.30
2018-02-08T15:55:52.902Z,0.20
2018-02-08T15:58:23.590Z,0.20
2018-02-08T16:00:53.530Z,0.20
2018-02-08T16:03:27.141Z,0.10
2018-02-08T16:05:56.046Z,0.10
2018-02-08T16:08:37.454Z,0.00
2018-02-08T16:11:05.477Z,0.00
2018-02-08T16:13:33.493Z,-0.10
2018-02-08T16:16:07.145Z,-0.10
2018-02-08T16:18:36.065Z,-0.10
2018-02-08T16:21:04.846Z,-0.10
2018-02-08T16:23:37.490Z,-0.20
2018-02-08T16:26:12.773Z,-0.20
2018-02-08T16:28:41.561Z,-0.20
2018-02-08T16:31:09.594Z,-0.30
2018-02-08T16:33:38.581Z,-0.30
2018-02-08T16:36:14.741Z,-0.30
2018-02-08T16:38:42.773Z,-0.30
2018-02-08T16:41:16.517Z,-0.30
2018-02-08T16:43:48.386Z,-0.40
2018-02-08T16:46:23.729Z,-0.40
2018-02-08T16:48:53.657Z,-0.30
2018-02-08T16:51:26.489Z,-0.30
2018-02-08T16:53:59.409Z,-0.30
2018-02-08T16:56:27.434Z,-0.30
2018-02-08T16:58:55.469Z,-0.30
2018-02-08T17:01:27.625Z,-0.40
2018-02-08T17:03:57.449Z,-0.40
2018-02-08T17:06:31.091Z,-0.40
2018-02-08T17:09:02.889Z,-0.40
2018-02-08T17:11:35.602Z,-0.40
2018-02-08T17:14:11.881Z,-0.40
2018-02-08T17:16:43.585Z,-0.40
2018-02-08T17:19:25.097Z,-0.50
2018-02-08T17:21:59.377Z,-0.50
2018-02-08T17:24:29.326Z,-0.50
2018-02-08T17:27:02.073Z,-0.50
2018-02-08T17:29:38.514Z,-0.50
2018-02-08T17:32:10.821Z,-0.40
2018-02-08T17:34:45.238Z,-0.50
2018-02-08T17:37:20.961Z,-0.50
2018-02-08T17:40:05.417Z,-0.50
2018-02-08T17:42:39.405Z,-0.50
2018-02-08T17:45:09.373Z,-0.50
2018-02-08T17:47:42.421Z,-0.50
2018-02-08T17:50:12.348Z,-0.60
2018-02-08T17:52:47.769Z,-0.50
2018-02-08T17:55:21.613Z,-0.50
2018-02-08T17:57:49.637Z,-0.50
2018-02-08T18:00:37.673Z,-0.60
2018-02-08T18:03:07.637Z,-0.60
2018-02-08T18:05:41.140Z,-0.60
2018-02-08T18:08:16.801Z,-0.60
2018-02-08T18:10:48.868Z,-0.60
2018-02-08T18:13:17.677Z,-0.70
2018-02-08T18:15:51.402Z,-0.70
2018-02-08T18:18:27.872Z,-0.70
2018-02-08T18:20:59.169Z,-0.70
2018-02-08T18:23:32.841Z,-0.70
2018-02-08T18:26:25.672Z,-0.70
2018-02-08T18:29:11.097Z,-0.80
2018-02-08T18:31:49.348Z,-0.80
2018-02-08T18:34:22.013Z,-0.80
2018-02-08T18:36:56.672Z,-0.80
2018-02-08T18:39:31.601Z,-0.80
2018-02-08T18:41:59.643Z,-0.80
2018-02-08T18:44:41.016Z,-0.80
2018-02-08T18:47:10.948Z,-0.80
2018-02-08T18:49:40.872Z,-0.80
2018-02-08T18:52:12.073Z,-0.80
2018-02-08T18:54:41.754Z,-0.90
2018-02-08T18:57:09.788Z,-0.90
2018-02-08T18:59:39.756Z,-0.90
2018-02-08T19:02:07.789Z,-0.90
2018-02-08T19:04:35.816Z,-1.00
2018-02-08T19:07:07.572Z,-1.00
2018-02-08T19:09:37.364Z,-1.00
2018-02-08T19:12:07.384Z,-1.00
2018-02-08T19:14:37.412Z,-1.00
2018-02-08T19:17:09.460Z,-1.00
2018-02-08T19:19:41.816Z,-1.00
2018-02-08T19:22:10.712Z,-1.00
2018-02-08T19:24:43.912Z,-1.10
2018-02-08T19:27:14.656Z,-1.20
2018-02-08T19:29:50.976Z,-1.20
2018-02-08T19:32:21.668Z,-1.20
2018-02-08T19:34:50.486Z,-1.40
2018-02-08T19:37:23.268Z,-1.40
2018-02-08T19:39:56.248Z,-1.40
2018-02-08T19:42:24.352Z,-1.40
2018-02-08T19:44:53.296Z,-1.40
2018-02-08T19:47:23.060Z,-1.40
2018-02-08T19:49:58.620Z,-1.50
2018-02-08T19:52:29.292Z,-1.50
2018-02-08T19:55:00.436Z,-1.60
2018-02-08T19:57:28.869Z,-1.60
2018-02-08T19:59:57.697Z,-1.60
2018-02-08T20:02:31.588Z,-1.60
2018-02-08T20:05:09.712Z,-1.50
2018-02-08T20:07:38.896Z,-1.50
2018-02-08T20:10:11.560Z,-1.50
2018-02-08T20:12:44.328Z,-1.50
2018-02-08T20:18:14.664Z,-1.60
2018-02-08T20:20:50.472Z,-1.60
2018-02-08T20:25:59.664Z,-1.80
2018-02-08T20:28:31.776Z,-1.90
2018-02-08T20:31:08.276Z,-2.00
2018-02-08T20:33:37.468Z,-2.00
2018-02-08T20:36:09.192Z,-2.00
2018-02-08T20:38:42.748Z,-1.90
2018-02-08T20:41:11.008Z,-1.90
2018-02-08T20:43:40.092Z,-1.90
2018-02-08T20:46:12.317Z,-1.80
2018-02-08T20:51:17.705Z,-1.70
2018-02-08T20:56:29.283Z,-1.70
2018-02-08T20:59:04.761Z,-1.70
2018-02-08T21:04:13.432Z,-1.70
2018-02-08T21:09:24.024Z,-1.80
2018-02-08T21:11:57.288Z,-1.80
2018-02-08T21:14:25.604Z,-1.80
2018-02-08T21:16:55.410Z,-1.70
2018-02-08T21:19:38.065Z,-1.80
2018-02-08T21:22:06.140Z,-1.80
2018-02-08T21:24:36.148Z,-1.70
2018-02-08T21:27:04.280Z,-1.70
2018-02-08T21:29:41.572Z,-1.60
2018-02-08T21:32:10.888Z,-1.70
2018-02-08T21:37:17.576Z,-1.60
2018-02-08T21:39:47.944Z,-1.60
2018-02-08T21:42:22.112Z,-1.60
2018-02-08T22:20:41.208Z,-1.30
2018-02-08T22:23:15.436Z,-1.30
2018-02-08T22:25:46.799Z,-1.30
2018-02-08T22:28:15.168Z,-1.30
2018-02-08T22:35:49.463Z,-1.30
2018-02-08T22:56:43.283Z,-1.30
2018-02-08T23:01:50.432Z,-1.30
2018-02-08T23:06:52.327Z,-1.30
2018-02-08T23:09:24.511Z,-1.30
2018-02-08T23:11:59.432Z,-1.30
2018-02-08T23:14:31.352Z,-1.30
2018-02-08T23:17:03.235Z,-1.30
2018-02-08T23:19:31.329Z,-1.30
2018-02-08T23:22:03.528Z,-1.30
2018-02-08T23:24:31.994Z,-1.40
2018-02-08T23:27:03.136Z,-1.30
2018-02-08T23:29:31.223Z,-1.30
2018-02-08T23:31:59.291Z,-1.30
2018-02-08T23:34:27.595Z,-1.30
2018-02-08T23:36:56.919Z,-1.30
2018-02-08T23:39:25.010Z,-1.30
2018-02-08T23:41:57.307Z,-1.30
2018-02-08T23:44:32.791Z,-1.30
2018-02-08T23:47:08.031Z,-1.30
2018-02-08T23:49:37.171Z,-1.30
2018-02-08T23:52:24.227Z,-1.40
2018-02-08T23:54:52.295Z,-1.40
2018-02-08T23:57:21.707Z,-1.40
2018-02-08T23:59:49.740Z,-1.40
